Time;durP1;ratioP1;P1;durP2;ratioP2;P2;SDS_P1;SDS_P2;PMS_P1;PMS_P2;Temp;Humidity;BMP_temperature;BMP_pressure;BME280_temperature;BME280_humidity;BME280_pressure;Samples;Min_cycle;Max_cycle;Signal;HPM_P1;HPM_P2
2023/08/08 00:01:48;;;;;;;1.45;1.20;;;;;;;22.74;63.33;97759.81;5051858;28;20189;-57
2023/08/08 00:04:14;;;;;;;1.20;1.20;;;;;;;22.86;64.69;97758.25;5036899;28;20631;-57
2023/08/08 00:06:39;;;;;;;1.42;1.30;;;;;;;23.27;67.06;97798.59;5031674;28;20265;-57
2023/08/08 00:09:05;;;;;;;3.92;1.67;;;;;;;23.31;67.31;97794.56;5032083;28;20185;-57
2023/08/08 00:11:30;;;;;;;1.75;1.35;;;;;;;23.34;67.49;97794.16;5031801;28;20273;-57
2023/08/08 00:13:57;;;;;;;1.50;1.40;;;;;;;23.31;67.21;97802.50;5051330;28;20656;-57
2023/08/08 00:16:22;;;;;;;1.50;1.40;;;;;;;23.33;67.45;97787.25;5051552;28;20188;-57
2023/08/08 00:18:50;;;;;;;1.42;1.33;;;;;;;23.22;67.38;97767.53;5051426;28;20216;-57
2023/08/08 00:21:16;;;;;;;2.58;1.30;;;;;;;23.34;67.33;97778.31;5051540;28;20188;-57
2023/08/08 00:23:41;;;;;;;1.42;1.35;;;;;;;23.24;67.00;97760.22;5051406;28;20189;-56
2023/08/08 00:26:06;;;;;;;1.92;1.38;;;;;;;23.32;67.18;97799.63;5051340;28;20185;-57
2023/08/08 00:28:32;;;;;;;2.97;1.40;;;;;;;23.23;66.32;97774.44;5066171;28;20184;-57
2023/08/08 00:30:57;;;;;;;3.85;1.70;;;;;;;23.23;65.12;97790.28;5071252;28;20330;-57
2023/08/08 00:33:23;;;;;;;2.13;1.10;;;;;;;23.22;66.13;97791.28;5071188;28;20654;-57
2023/08/08 00:35:48;;;;;;;1.40;1.30;;;;;;;23.26;66.06;97770.59;5086358;28;20184;-57
2023/08/08 00:38:14;;;;;;;1.33;1.23;;;;;;;23.43;65.68;97790.31;5091673;28;20274;-57
2023/08/08 00:40:39;;;;;;;2.20;1.30;;;;;;;23.22;65.31;97770.19;5091261;28;20729;-57
2023/08/08 00:43:05;;;;;;;2.70;1.73;;;;;;;23.46;64.82;97800.47;5091392;28;20176;-57
2023/08/08 00:45:30;;;;;;;2.53;1.48;;;;;;;23.59;64.51;97800.53;5085868;28;20187;-57
2023/08/08 00:47:56;;;;;;;1.45;1.35;;;;;;;23.47;64.24;97767.75;5091338;28;20206;-57
2023/08/08 00:50:22;;;;;;;1.48;1.38;;;;;;;23.39;64.30;97758.22;5091160;28;20297;-57
2023/08/08 00:52:47;;;;;;;1.67;1.58;;;;;;;23.66;62.85;97781.00;5091182;28;20217;-57
2023/08/08 00:55:14;;;;;;;1.50;1.40;;;;;;;23.76;62.30;97791.97;5091105;28;20328;-57
2023/08/08 00:57:40;;;;;;;1.80;1.70;;;;;;;23.91;62.32;97811.16;5091047;28;20180;-57
2023/08/08 01:00:07;;;;;;;1.52;1.40;;;;;;;23.66;62.99;97796.06;5090961;28;20330;-57
2023/08/08 01:02:33;;;;;;;2.22;1.58;;;;;;;23.59;63.33;97811.09;5090832;28;20179;-56
2023/08/08 01:04:58;;;;;;;1.17;1.17;;;;;;;23.40;64.73;97806.56;5089838;28;20180;-57
2023/08/08 01:07:32;;;;;;;2.95;1.70;;;;;;;23.33;65.00;97800.44;5090697;28;20191;-57
2023/08/08 01:10:07;;;;;;;1.50;1.40;;;;;;;23.49;64.08;97794.81;5090779;28;20282;-57
2023/08/08 01:12:40;;;;;;;1.33;1.23;;;;;;;23.60;64.23;97812.72;5073688;28;20290;-56
2023/08/08 01:15:08;;;;;;;2.38;1.40;;;;;;;23.61;64.29;97819.63;5090682;28;20187;-57
2023/08/08 01:17:35;;;;;;;1.52;1.10;;;;;;;23.51;64.12;97795.41;5092648;28;20356;-57
2023/08/08 01:20:04;;;;;;;1.40;1.30;;;;;;;23.68;64.12;97810.69;5093027;28;20207;-58
2023/08/08 01:22:51;;;;;;;3.40;1.42;;;;;;;23.60;64.60;97824.06;5091010;28;20184;-58
2023/08/08 01:25:17;;;;;;;1.50;1.40;;;;;;;23.60;64.22;97818.00;5093102;28;20168;-57
2023/08/08 01:27:43;;;;;;;1.58;1.48;;;;;;;23.51;64.49;97805.97;5092935;28;20176;-57
2023/08/08 01:30:09;;;;;;;1.30;1.20;;;;;;;23.28;65.21;97792.31;5092899;28;20180;-57
2023/08/08 01:32:34;;;;;;;2.75;1.40;;;;;;;23.33;66.42;97811.00;5092838;28;20237;-57
2023/08/08 01:34:59;;;;;;;1.90;1.58;;;;;;;23.23;67.34;97800.00;5092780;28;20199;-58
2023/08/08 01:37:32;;;;;;;3.80;1.40;;;;;;;23.23;68.15;97815.84;5092826;28;20179;-58
2023/08/08 01:40:00;;;;;;;1.33;1.23;;;;;;;23.16;67.16;97807.06;5092699;28;20207;-57
2023/08/08 01:42:26;;;;;;;1.65;1.58;;;;;;;23.39;67.07;97831.34;5092673;28;20260;-57
2023/08/08 01:44:53;;;;;;;1.50;1.40;;;;;;;23.57;64.98;97834.22;5092657;28;20246;-57
2023/08/08 01:47:18;;;;;;;2.78;1.55;;;;;;;23.73;64.28;97832.03;5092680;28;20176;-56
2023/08/08 01:49:44;;;;;;;2.80;1.60;;;;;;;23.74;64.63;97841.59;5092189;28;20584;-57
2023/08/08 01:52:09;;;;;;;3.33;1.38;;;;;;;23.31;65.99;97803.28;5092472;28;20176;-57
2023/08/08 01:54:35;;;;;;;1.70;1.52;;;;;;;23.60;65.25;97842.56;5092604;28;20179;-57
2023/08/08 01:57:00;;;;;;;2.03;1.30;;;;;;;23.56;64.12;97822.88;5092429;28;20202;-57
2023/08/08 01:59:25;;;;;;;1.50;1.40;;;;;;;23.73;65.22;97841.78;5092355;28;20740;-57
2023/08/08 02:01:51;;;;;;;1.50;1.40;;;;;;;23.74;64.75;97841.59;5092332;28;20182;-57
2023/08/08 02:04:16;;;;;;;2.35;1.30;;;;;;;23.51;66.15;97819.19;5092548;28;20179;-57
2023/08/08 02:06:42;;;;;;;1.55;1.45;;;;;;;23.50;65.14;97851.88;5092228;28;20195;-57
2023/08/08 02:09:07;;;;;;;3.00;1.55;;;;;;;23.39;65.03;97828.69;5092105;28;20172;-58
2023/08/08 02:11:32;;;;;;;1.30;1.30;;;;;;;23.38;65.13;97835.00;5092108;28;20184;-57
2023/08/08 02:13:58;;;;;;;1.80;1.65;;;;;;;23.41;65.21;97851.25;5091817;28;20593;-57
2023/08/08 02:16:23;;;;;;;1.50;1.40;;;;;;;23.31;64.67;97820.97;5091901;28;20176;-57
2023/08/08 02:18:49;;;;;;;1.55;1.45;;;;;;;23.42;64.45;97838.88;5092063;28;20163;-57
2023/08/08 02:21:14;;;;;;;1.52;1.42;;;;;;;23.39;64.52;97826.06;5091664;28;20259;-57
2023/08/08 02:23:40;;;;;;;2.90;1.30;;;;;;;23.48;64.72;97840.72;5109621;28;20885;-57
2023/08/08 02:26:06;;;;;;;1.23;1.10;;;;;;;23.72;64.78;97869.22;5109708;28;20220;-57
2023/08/08 02:28:31;;;;;;;1.10;1.00;;;;;;;23.50;65.82;97841.31;5109707;28;20262;-57
2023/08/08 02:30:57;;;;;;;1.60;1.10;;;;;;;23.50;65.79;97836.03;5109608;28;20183;-57
2023/08/08 02:33:22;;;;;;;1.05;1.05;;;;;;;23.72;65.83;97850.72;5109854;28;20696;-57
2023/08/08 02:35:47;;;;;;;0.98;0.93;;;;;;;23.84;65.33;97857.84;5109584;28;20183;-57
2023/08/08 02:38:13;;;;;;;1.02;0.95;;;;;;;23.84;65.38;97848.09;5109498;28;20266;-57
2023/08/08 02:40:41;;;;;;;1.20;1.10;;;;;;;24.02;65.61;97885.34;5109431;28;20209;-58
2023/08/08 02:43:06;;;;;;;0.88;0.70;;;;;;;23.85;65.25;97855.00;5109182;28;20179;-57
2023/08/08 02:45:32;;;;;;;1.23;0.90;;;;;;;23.74;65.41;97846.88;5109404;28;20187;-57
2023/08/08 02:47:58;;;;;;;0.80;0.80;;;;;;;23.75;65.28;97846.66;5109258;28;20189;-57
2023/08/08 02:50:23;;;;;;;0.98;0.98;;;;;;;23.75;65.44;97862.50;5109262;28;20304;-57
2023/08/08 02:52:49;;;;;;;1.08;1.00;;;;;;;23.78;65.72;97885.91;5109170;28;20586;-57
2023/08/08 02:55:15;;;;;;;1.00;0.90;;;;;;;23.56;66.09;97869.56;5093975;28;20677;-57
2023/08/08 02:57:40;;;;;;;2.38;1.00;;;;;;;23.74;65.71;97900.50;5088842;28;20202;-57
2023/08/08 03:00:08;;;;;;;0.95;0.95;;;;;;;23.52;66.29;97881.53;5088648;28;20594;-57
2023/08/08 03:02:33;;;;;;;1.20;1.10;;;;;;;23.52;65.82;97887.66;5088663;28;20180;-57
2023/08/08 03:04:59;;;;;;;0.90;0.90;;;;;;;23.45;65.81;97900.03;5088941;28;20202;-57
2023/08/08 03:07:24;;;;;;;0.73;0.60;;;;;;;23.35;66.56;97904.03;5088540;28;20207;-57
2023/08/08 03:09:50;;;;;;;2.45;0.88;;;;;;;23.30;66.63;97917.03;5088670;28;20333;-57
2023/08/08 03:12:15;;;;;;;1.27;0.90;;;;;;;23.28;66.88;97909.31;5088676;28;20681;-57
2023/08/08 03:14:40;;;;;;;1.17;0.90;;;;;;;23.16;66.61;97894.19;5090215;28;20198;-57
2023/08/08 03:17:06;;;;;;;1.90;1.08;;;;;;;23.32;66.02;97920.28;5091131;28;20229;-57
2023/08/08 03:19:31;;;;;;;1.58;0.98;;;;;;;23.39;64.93;97926.41;5090977;28;20286;-57
2023/08/08 03:21:56;;;;;;;1.25;1.15;;;;;;;23.34;65.50;97939.38;5090890;28;20172;-57
2023/08/08 03:24:22;;;;;;;1.02;0.90;;;;;;;23.40;64.86;97938.59;5090693;28;20599;-57
2023/08/08 03:26:47;;;;;;;1.77;1.00;;;;;;;23.41;64.79;97941.03;5092314;28;20258;-57
2023/08/08 03:29:13;;;;;;;0.77;0.77;;;;;;;23.36;65.09;97938.16;5097782;28;20199;-57
2023/08/08 03:31:38;;;;;;;1.38;1.05;;;;;;;23.22;65.09;97914.53;5097427;28;20168;-57
2023/08/08 03:34:04;;;;;;;2.33;0.90;;;;;;;23.49;64.98;97951.44;5097334;28;20179;-57
2023/08/08 03:36:30;;;;;;;1.25;1.15;;;;;;;23.31;65.24;97934.50;5097648;28;20175;-57
2023/08/08 03:38:55;;;;;;;0.95;0.82;;;;;;;23.20;65.44;97925.28;5097579;28;20179;-57
2023/08/08 03:41:21;;;;;;;0.90;0.90;;;;;;;23.38;65.18;97945.91;5097481;28;20229;-57
2023/08/08 03:43:46;;;;;;;0.93;0.88;;;;;;;23.42;65.47;97968.28;5097616;28;20547;-57
2023/08/08 03:46:12;;;;;;;0.90;0.90;;;;;;;23.36;66.18;97953.22;5097613;28;20168;-57
2023/08/08 03:48:38;;;;;;;0.70;0.70;;;;;;;23.53;65.50;97976.44;5097560;28;20258;-57
2023/08/08 03:51:03;;;;;;;1.40;1.00;;;;;;;23.42;65.62;97960.34;5097540;28;20642;-58
2023/08/08 03:53:29;;;;;;;1.58;1.00;;;;;;;23.37;65.32;97953.00;5097592;28;20258;-57
2023/08/08 03:55:54;;;;;;;1.33;1.05;;;;;;;23.49;65.28;97983.13;5115289;28;20189;-57
2023/08/08 03:58:20;;;;;;;1.00;0.80;;;;;;;23.35;65.39;97962.94;5115391;28;20297;-57
2023/08/08 04:00:48;;;;;;;1.30;1.20;;;;;;;23.37;66.40;97989.16;5115170;28;20215;-57
2023/08/08 04:03:14;;;;;;;0.60;0.60;;;;;;;23.28;67.49;97991.16;5115487;28;20658;-57
2023/08/08 04:05:41;;;;;;;1.13;1.02;;;;;;;23.04;68.95;97970.47;5115297;28;20290;-57
2023/08/08 04:08:07;;;;;;;0.77;0.70;;;;;;;23.08;69.36;97994.66;5115189;28;20320;-57
2023/08/08 04:10:32;;;;;;;1.17;0.60;;;;;;;22.88;70.64;97996.31;5115217;28;20274;-57
2023/08/08 04:12:58;;;;;;;0.50;0.50;;;;;;;22.93;71.45;98036.97;5115254;28;20665;-57
2023/08/08 04:15:23;;;;;;;0.75;0.75;;;;;;;22.62;72.49;98019.88;5115185;28;20198;-57
2023/08/08 04:17:49;;;;;;;0.80;0.80;;;;;;;22.60;73.69;98022.69;5115201;28;20171;-57
2023/08/08 04:20:14;;;;;;;1.83;0.90;;;;;;;22.56;73.67;98034.59;5115205;28;20201;-56
2023/08/08 04:22:40;;;;;;;0.80;0.80;;;;;;;22.49;75.03;98051.41;5115200;28;20186;-57
2023/08/08 04:25:06;;;;;;;0.70;0.70;;;;;;;22.38;75.74;98044.75;5115122;28;20181;-57
2023/08/08 04:27:31;;;;;;;1.08;0.85;;;;;;;22.30;76.12;98062.50;5101105;28;20188;-56
2023/08/08 04:29:57;;;;;;;0.90;0.90;;;;;;;22.06;77.41;98039.13;5097096;28;20277;-57
2023/08/08 04:32:22;;;;;;;1.65;1.00;;;;;;;22.08;77.05;98039.78;5097141;28;20207;-57
2023/08/08 04:34:47;;;;;;;0.90;0.90;;;;;;;22.25;76.65;98080.72;5097121;28;20171;-57
2023/08/08 04:37:13;;;;;;;1.42;0.90;;;;;;;22.08;76.93;98050.31;5097105;28;20183;-56
2023/08/08 04:39:38;;;;;;;1.13;0.60;;;;;;;22.14;77.38;98060.91;5094336;28;20279;-56
2023/08/08 04:42:04;;;;;;;2.65;0.65;;;;;;;21.98;77.76;98045.31;5094175;28;20547;-56
2023/08/08 04:44:29;;;;;;;1.20;0.50;;;;;;;22.20;78.32;98077.81;5093808;28;20264;-57
2023/08/08 04:46:55;;;;;;;0.70;0.70;;;;;;;21.91;78.72;98044.44;5093781;28;20168;-57
2023/08/08 04:49:20;;;;;;;0.80;0.80;;;;;;;22.00;78.96;98095.19;5093991;28;20172;-58
2023/08/08 04:51:46;;;;;;;0.93;0.93;;;;;;;21.68;78.94;98069.28;5093706;28;20266;-57
2023/08/08 04:54:11;;;;;;;0.70;0.70;;;;;;;21.73;79.87;98106.41;5093791;28;20194;-57
2023/08/08 04:56:37;;;;;;;0.85;0.60;;;;;;;21.62;80.65;98101.56;5093271;28;20195;-57
2023/08/08 04:59:02;;;;;;;0.65;0.65;;;;;;;21.60;80.18;98104.38;5093338;28;20729;-57
2023/08/08 05:01:27;;;;;;;0.88;0.88;;;;;;;21.53;80.47;98102.63;5093522;28;20225;-57
2023/08/08 05:03:53;;;;;;;0.73;0.60;;;;;;;21.50;79.94;98098.53;5099663;28;20276;-57
2023/08/08 05:06:19;;;;;;;1.08;0.95;;;;;;;21.55;79.89;98111.16;5112874;28;20195;-57
2023/08/08 05:08:44;;;;;;;1.38;0.90;;;;;;;21.31;81.39;98106.16;5113469;28;20171;-57
2023/08/08 05:11:09;;;;;;;0.80;0.80;;;;;;;21.33;82.51;98117.34;5113327;28;20684;-57
2023/08/08 05:13:35;;;;;;;0.98;0.93;;;;;;;21.56;82.65;98147.84;5113096;28;20702;-59
2023/08/08 05:16:00;;;;;;;0.90;0.90;;;;;;;21.48;80.39;98152.38;5113352;28;20182;-57
2023/08/08 05:18:26;;;;;;;1.35;1.02;;;;;;;21.43;79.65;98145.03;5113530;28;20173;-57
2023/08/08 05:20:51;;;;;;;1.00;1.00;;;;;;;21.34;79.95;98148.72;5113350;28;20195;-57
2023/08/08 05:23:17;;;;;;;0.93;0.93;;;;;;;21.27;80.62;98152.25;5113444;28;20528;-57
2023/08/08 05:25:42;;;;;;;0.77;0.77;;;;;;;21.28;80.26;98153.91;5113316;28;20258;-57
2023/08/08 05:28:07;;;;;;;0.90;0.90;;;;;;;21.19;81.26;98144.41;5112924;28;20283;-57
2023/08/08 05:30:33;;;;;;;1.48;0.70;;;;;;;21.11;79.79;98149.75;5112978;28;20171;-57
2023/08/08 05:32:58;;;;;;;1.23;1.20;;;;;;;21.16;81.22;98147.44;5112979;27;20637;-57
2023/08/08 05:35:24;;;;;;;1.10;1.00;;;;;;;21.10;80.44;98161.28;5110448;28;20708;-57
2023/08/08 05:37:49;;;;;;;1.90;1.08;;;;;;;21.17;81.54;98188.53;5110331;28;20608;-57
2023/08/08 05:40:15;;;;;;;1.25;1.00;;;;;;;20.98;80.98;98155.59;5110519;28;20289;-57
2023/08/08 05:42:40;;;;;;;0.90;0.90;;;;;;;21.19;80.32;98205.78;5110694;28;20251;-57
2023/08/08 05:45:06;;;;;;;1.10;1.10;;;;;;;20.91;80.64;98167.00;5110568;28;20198;-57
2023/08/08 05:47:32;;;;;;;1.27;1.10;;;;;;;21.11;82.01;98202.38;5110623;28;20632;-57
2023/08/08 05:49:58;;;;;;;1.17;1.17;;;;;;;21.10;82.09;98184.97;5109909;28;20274;-57
2023/08/08 05:52:23;;;;;;;1.13;1.10;;;;;;;21.27;79.80;98218.06;5110228;28;20187;-57
2023/08/08 05:54:49;;;;;;;1.52;0.98;;;;;;;21.26;76.72;98225.13;5109859;28;20223;-57
2023/08/08 05:57:14;;;;;;;1.25;1.02;;;;;;;21.25;73.25;98243.72;5110385;28;20807;-57
2023/08/08 05:59:40;;;;;;;1.15;1.00;;;;;;;21.09;74.77;98230.69;5069221;28;20216;-57
2023/08/08 06:02:05;;;;;;;1.05;1.05;;;;;;;21.00;73.33;98237.81;5069356;28;20698;-57
2023/08/08 06:04:31;;;;;;;1.33;1.27;;;;;;;21.00;73.25;98239.63;5069656;28;20652;-57
2023/08/08 06:06:56;;;;;;;1.10;1.10;;;;;;;20.73;73.76;98224.28;5083493;28;20199;-57
2023/08/08 06:09:22;;;;;;;1.25;1.15;;;;;;;20.54;74.04;98216.84;5089191;28;20297;-59
2023/08/08 06:11:48;;;;;;;1.05;1.05;;;;;;;20.76;74.10;98245.78;5089756;28;20172;-57
2023/08/08 06:14:13;;;;;;;1.50;1.17;;;;;;;20.75;74.59;98238.09;5089698;28;20226;-57
2023/08/08 06:16:39;;;;;;;1.20;1.13;;;;;;;20.67;73.93;98209.19;5088205;28;20236;-57
2023/08/08 06:19:04;;;;;;;1.17;1.17;;;;;;;20.84;76.70;98258.09;5088503;28;20262;-57
2023/08/08 06:21:30;;;;;;;1.02;1.02;;;;;;;20.68;76.82;98229.28;5089563;28;20238;-57
2023/08/08 06:23:55;;;;;;;2.05;1.40;;;;;;;20.52;79.63;98211.75;5089529;28;20184;-57
2023/08/08 06:26:22;;;;;;;1.15;1.15;;;;;;;20.64;82.87;98246.38;5089378;28;20191;-57
2023/08/08 06:28:47;;;;;;;2.05;1.45;;;;;;;20.54;87.73;98249.22;5089488;28;20196;-56
2023/08/08 06:31:13;;;;;;;2.75;1.27;;;;;;;20.41;87.10;98234.97;5105851;28;20564;-56
2023/08/08 06:33:39;;;;;;;1.30;1.30;;;;;;;20.37;90.56;98257.31;5112154;28;20660;-56
2023/08/08 06:36:05;;;;;;;1.20;1.20;;;;;;;20.29;90.89;98247.66;5112157;28;20167;-56
2023/08/08 06:38:33;;;;;;;1.80;1.63;;;;;;;20.10;95.27;98260.38;5112206;28;20185;-56
2023/08/08 06:40:59;;;;;;;1.30;1.30;;;;;;;19.77;96.71;98245.63;5112077;28;20195;-57
2023/08/08 06:43:25;;;;;;;1.30;1.30;;;;;;;19.94;95.65;98249.88;5112091;28;20183;-57
2023/08/08 06:45:50;;;;;;;2.38;1.77;;;;;;;20.12;97.65;98261.03;5129954;27;20717;-57
2023/08/08 06:48:15;;;;;;;1.80;1.70;;;;;;;20.03;100.00;98227.84;5130020;27;20194;-57
2023/08/08 06:50:41;;;;;;;1.75;1.65;;;;;;;19.87;97.95;98230.53;5129965;27;20213;-57
2023/08/08 06:53:07;;;;;;;2.05;1.95;;;;;;;19.84;100.00;98268.44;5129974;27;20178;-58
2023/08/08 06:55:32;;;;;;;1.73;1.65;;;;;;;19.73;100.00;98244.31;5129777;27;20194;-57
2023/08/08 06:57:58;;;;;;;1.75;1.65;;;;;;;19.56;100.00;98232.19;5129913;27;20660;-57
2023/08/08 07:00:24;;;;;;;1.85;1.60;;;;;;;19.47;100.00;98262.06;5129754;27;20747;-56
2023/08/08 07:02:49;;;;;;;2.38;2.28;;;;;;;19.69;100.00;98262.19;5128859;27;20190;-57
2023/08/08 07:05:14;;;;;;;2.08;1.98;;;;;;;19.55;100.00;98247.13;5129684;27;20213;-57
2023/08/08 07:07:40;;;;;;;1.95;1.85;;;;;;;19.37;100.00;98227.28;5129653;27;20201;-57
2023/08/08 07:10:06;;;;;;;2.33;1.90;;;;;;;19.51;100.00;98244.97;5129699;27;20346;-57
2023/08/08 07:12:32;;;;;;;2.15;1.98;;;;;;;19.49;100.00;98241.69;5129773;27;20202;-57
2023/08/08 07:14:57;;;;;;;2.20;2.05;;;;;;;19.75;100.00;98258.91;5129639;27;20174;-57
2023/08/08 07:17:22;;;;;;;3.15;1.67;;;;;;;20.01;100.00;98253.47;5116093;27;20277;-56
2023/08/08 07:19:48;;;;;;;1.73;1.60;;;;;;;19.93;100.00;98266.63;5111452;28;20522;-57
2023/08/08 07:22:13;;;;;;;1.80;1.60;;;;;;;19.66;100.00;98227.59;5111568;28;20175;-57
2023/08/08 07:24:39;;;;;;;2.92;1.73;;;;;;;19.93;100.00;98256.09;5111604;28;20774;-57
2023/08/08 07:27:04;;;;;;;1.70;1.60;;;;;;;20.08;100.00;98264.97;5111251;28;20178;-57
2023/08/08 07:29:30;;;;;;;2.33;1.67;;;;;;;20.18;99.96;98248.03;5111478;28;20202;-57
2023/08/08 07:31:57;;;;;;;1.88;1.77;;;;;;;20.30;100.00;98269.50;5111490;28;20629;-57
2023/08/08 07:34:23;;;;;;;2.03;1.92;;;;;;;20.12;100.00;98259.19;5111115;28;20575;-57
2023/08/08 07:36:48;;;;;;;2.33;1.73;;;;;;;20.43;97.92;98281.13;5111325;28;20269;-57
2023/08/08 07:39:14;;;;;;;2.00;1.90;;;;;;;20.49;98.00;98282.25;5111187;28;20199;-57
2023/08/08 07:41:40;;;;;;;2.67;1.75;;;;;;;20.40;100.00;98272.78;5111207;28;20190;-56
2023/08/08 07:44:05;;;;;;;4.15;1.75;;;;;;;20.10;96.06;98234.91;5111626;28;20168;-57
2023/08/08 07:46:32;;;;;;;1.83;1.73;;;;;;;20.29;100.00;98288.91;5111252;28;20262;-57
2023/08/08 07:48:59;;;;;;;2.75;1.50;;;;;;;20.29;96.82;98257.34;5111210;28;20179;-57
2023/08/08 07:51:25;;;;;;;1.70;1.60;;;;;;;20.44;97.20;98287.19;5110826;28;20616;-57
2023/08/08 07:53:50;;;;;;;1.73;1.60;;;;;;;20.63;95.35;98263.94;5111419;28;20262;-57
2023/08/08 07:56:16;;;;;;;2.15;2.05;;;;;;;20.77;94.10;98259.78;5110794;28;20635;-57
2023/08/08 07:58:41;;;;;;;1.92;1.73;;;;;;;20.84;100.00;98289.66;5111113;28;20167;-56
2023/08/08 08:01:06;;;;;;;3.05;1.70;;;;;;;20.92;92.68;98266.78;5111086;28;20203;-57
2023/08/08 08:03:32;;;;;;;1.83;1.52;;;;;;;21.16;88.90;98277.16;5111134;28;20175;-57
2023/08/08 08:05:57;;;;;;;2.70;1.35;;;;;;;21.31;88.71;98298.28;5110941;28;20254;-57
2023/08/08 08:08:24;;;;;;;2.08;1.80;;;;;;;21.39;87.14;98298.25;5128968;28;20182;-57
2023/08/08 08:10:50;;;;;;;2.78;1.65;;;;;;;21.39;88.34;98285.09;5128925;28;20190;-57
2023/08/08 08:13:16;;;;;;;3.08;1.60;;;;;;;21.54;89.31;98288.59;5129959;27;20194;-57
2023/08/08 08:15:41;;;;;;;2.38;1.85;;;;;;;21.68;91.16;98301.84;5132913;27;20239;-57
2023/08/08 08:18:07;;;;;;;1.30;1.30;;;;;;;21.70;90.04;98278.78;5132798;27;20183;-58
2023/08/08 08:20:32;;;;;;;1.70;1.60;;;;;;;21.80;84.48;98268.00;5132822;27;20210;-57
2023/08/08 08:22:58;;;;;;;2.55;1.48;;;;;;;21.92;85.32;98272.63;5132721;27;20649;-58
2023/08/08 08:25:23;;;;;;;1.23;1.20;;;;;;;21.91;82.43;98264.94;5132834;27;20291;-57
2023/08/08 08:27:48;;;;;;;1.50;1.50;;;;;;;21.86;83.56;98257.56;5132634;27;20186;-57
2023/08/08 08:30:14;;;;;;;2.45;1.60;;;;;;;21.87;85.02;98274.19;5132600;27;20193;-57
2023/08/08 08:32:40;;;;;;;1.67;1.52;;;;;;;21.94;83.09;98277.72;5132582;27;20597;-57
2023/08/08 08:35:07;;;;;;;1.50;1.40;;;;;;;21.98;80.74;98265.84;5132500;27;20186;-57
2023/08/08 08:37:33;;;;;;;1.45;1.35;;;;;;;22.05;83.00;98298.38;5132504;27;20174;-56
2023/08/08 08:39:59;;;;;;;1.35;1.27;;;;;;;22.03;82.94;98279.31;5118363;27;20219;-57
2023/08/08 08:42:27;;;;;;;2.13;1.40;;;;;;;22.05;80.82;98278.13;5114612;28;20220;-57
2023/08/08 08:44:57;;;;;;;1.10;1.10;;;;;;;22.19;83.68;98302.84;5114356;28;20179;-57
2023/08/08 08:47:24;;;;;;;1.23;1.05;;;;;;;22.42;78.90;98308.88;5114209;28;20182;-57
2023/08/08 08:49:52;;;;;;;1.20;1.20;;;;;;;22.31;80.28;98278.50;5111615;28;20191;-57
2023/08/08 08:52:17;;;;;;;1.10;1.00;;;;;;;22.35;75.87;98263.13;5111691;28;20189;-57
2023/08/08 08:54:43;;;;;;;1.10;1.10;;;;;;;22.68;75.38;98304.00;5111616;28;20697;-56
2023/08/08 08:57:09;;;;;;;1.30;1.30;;;;;;;22.64;75.54;98278.97;5111733;28;20171;-56
2023/08/08 08:59:35;;;;;;;1.48;1.17;;;;;;;22.70;74.61;98284.34;5111463;28;20271;-57
2023/08/08 09:02:00;;;;;;;1.02;1.02;;;;;;;22.78;70.67;98270.25;5111571;28;20579;-57
2023/08/08 09:04:28;;;;;;;1.38;0.80;;;;;;;22.82;67.82;98280.22;5111427;28;20653;-57
2023/08/08 09:06:54;;;;;;;0.93;0.85;;;;;;;22.95;68.10;98308.63;5111267;28;20574;-57
2023/08/08 09:09:21;;;;;;;0.80;0.80;;;;;;;23.00;68.65;98303.56;5111395;28;20198;-57
2023/08/08 09:11:54;;;;;;;0.88;0.88;;;;;;;22.88;63.75;98266.28;5111406;28;20175;-57
2023/08/08 09:14:25;;;;;;;0.77;0.77;;;;;;;22.89;62.73;98272.41;5111295;28;20201;-57
2023/08/08 09:16:53;;;;;;;0.70;0.70;;;;;;;23.16;65.43;98290.16;5111308;28;20273;-57
2023/08/08 09:19:19;;;;;;;1.17;0.80;;;;;;;23.47;64.31;98296.81;5111077;28;20206;-57
2023/08/08 09:21:45;;;;;;;0.77;0.77;;;;;;;23.55;63.13;98282.66;5113058;28;20224;-57
2023/08/08 09:24:11;;;;;;;1.17;0.70;;;;;;;23.71;60.68;98269.19;5113151;28;20207;-57
2023/08/08 09:26:37;;;;;;;1.35;1.02;;;;;;;23.92;61.83;98282.41;5112704;28;20271;-58
2023/08/08 09:29:03;;;;;;;1.40;1.40;;;;;;;24.07;61.20;98291.06;5113532;28;20175;-57
2023/08/08 09:31:30;;;;;;;0.90;0.90;;;;;;;24.03;56.84;98275.56;5113514;28;20202;-57
2023/08/08 09:33:58;;;;;;;1.70;1.20;;;;;;;23.95;56.90;98259.03;5113455;28;20269;-58
2023/08/08 09:36:25;;;;;;;1.98;1.15;;;;;;;24.10;57.95;98279.06;5113353;27;20163;-57
2023/08/08 09:38:51;;;;;;;0.82;0.82;;;;;;;24.12;56.48;98284.19;5113304;28;20181;-58
2023/08/08 09:41:16;;;;;;;1.08;0.98;;;;;;;24.04;55.66;98245.47;5113380;28;20256;-57
2023/08/08 09:43:44;;;;;;;1.52;1.08;;;;;;;24.17;56.46;98249.25;5113266;28;20172;-57
2023/08/08 09:46:10;;;;;;;2.58;1.05;;;;;;;24.41;55.74;98252.22;5113163;28;20175;-58
2023/08/08 09:48:38;;;;;;;1.27;1.08;;;;;;;24.61;52.90;98275.16;5113165;28;20637;-58
2023/08/08 09:51:06;;;;;;;2.15;1.30;;;;;;;24.39;54.15;98236.53;5113150;28;20554;-58
2023/08/08 09:53:32;;;;;;;2.40;0.95;;;;;;;24.68;54.27;98267.25;5113006;28;20172;-57
2023/08/08 09:55:58;;;;;;;1.45;1.40;;;;;;;24.62;53.54;98237.09;5112857;27;20171;-58
2023/08/08 09:58:24;;;;;;;1.40;1.30;;;;;;;24.75;54.96;98255.69;5113051;28;20175;-57
2023/08/08 10:00:50;;;;;;;2.70;1.55;;;;;;;24.97;52.97;98259.81;5112790;28;20640;-57
2023/08/08 10:03:19;;;;;;;1.80;1.20;;;;;;;24.99;52.69;98252.50;5112819;28;20658;-57
2023/08/08 10:05:45;;;;;;;1.25;1.15;;;;;;;25.08;51.96;98248.66;5112765;27;20167;-57
2023/08/08 10:08:15;;;;;;;1.40;1.30;;;;;;;25.10;50.90;98249.28;5113178;28;20195;-57
2023/08/08 10:10:41;;;;;;;4.45;1.08;;;;;;;25.09;50.46;98262.72;5112587;28;20657;-57
2023/08/08 10:13:07;;;;;;;2.50;1.30;;;;;;;25.14;49.58;98255.78;5112689;28;20232;-57
2023/08/08 10:15:37;;;;;;;1.30;1.20;;;;;;;25.05;50.53;98230.53;5112346;28;20242;-58
2023/08/08 10:18:03;;;;;;;1.25;1.20;;;;;;;25.23;49.76;98264.38;5112697;28;20171;-57
2023/08/08 10:20:32;;;;;;;1.25;1.15;;;;;;;25.32;49.00;98271.94;5112295;28;20206;-57
2023/08/08 10:22:58;;;;;;;1.20;1.20;;;;;;;25.52;49.12;98272.00;5112286;28;20270;-57
2023/08/08 10:25:27;;;;;;;1.08;0.95;;;;;;;25.47;46.29;98262.00;5112180;28;20721;-57
2023/08/08 10:28:14;;;;;;;1.30;1.13;;;;;;;25.83;46.53;98264.28;5112391;28;20261;-57
2023/08/08 10:30:45;;;;;;;1.77;1.20;;;;;;;26.01;44.41;98281.22;5112329;28;20186;-57
2023/08/08 10:33:22;;;;;;;1.42;1.10;;;;;;;26.14;43.67;98275.91;5112297;28;20243;-57
2023/08/08 10:36:04;;;;;;;1.95;1.30;;;;;;;26.14;42.99;98262.66;5111806;28;20534;-58
2023/08/08 10:38:43;;;;;;;0.80;0.80;;;;;;;26.19;43.11;98257.50;5112185;28;20575;-57
2023/08/08 10:41:17;;;;;;;1.10;1.10;;;;;;;26.06;43.55;98243.47;5112102;28;20199;-57
2023/08/08 10:43:51;;;;;;;3.25;1.00;;;;;;;26.29;42.99;98270.38;5112159;28;20175;-58
2023/08/08 10:46:30;;;;;;;2.08;0.90;;;;;;;26.16;42.04;98267.72;5111996;28;20173;-57
2023/08/08 10:49:01;;;;;;;1.42;1.33;;;;;;;26.26;41.11;98258.34;5111916;28;20171;-57
2023/08/08 10:51:42;;;;;;;1.50;1.02;;;;;;;26.60;41.20;98271.31;5111611;28;20661;-57
2023/08/08 10:54:14;;;;;;;0.80;0.80;;;;;;;26.68;40.60;98236.59;5111833;28;20174;-58
2023/08/08 10:56:41;;;;;;;2.45;1.10;;;;;;;26.99;39.99;98233.97;5111843;28;20220;-57
2023/08/08 10:59:18;;;;;;;1.25;1.10;;;;;;;27.23;39.88;98251.84;5111327;28;20561;-57
2023/08/08 11:01:50;;;;;;;1.48;1.40;;;;;;;27.54;39.29;98238.56;5111670;28;20171;-58
2023/08/08 11:04:19;;;;;;;1.75;0.90;;;;;;;27.68;38.35;98236.59;5109014;28;20182;-57
2023/08/08 11:06:45;;;;;;;1.05;0.80;;;;;;;28.10;37.88;98255.28;5109038;28;20585;-57
2023/08/08 11:09:10;;;;;;;1.25;1.15;;;;;;;28.22;37.37;98261.50;5109391;28;20266;-57
2023/08/08 11:11:40;;;;;;;0.80;0.80;;;;;;;28.24;37.68;98245.34;5068363;28;20185;-57
2023/08/08 11:14:20;;;;;;;1.02;1.00;;;;;;;28.47;37.86;98219.72;5068638;28;20693;-57
2023/08/08 11:16:47;;;;;;;2.58;1.17;;;;;;;28.83;36.25;98267.63;5068732;28;20188;-57
2023/08/08 11:19:13;;;;;;;2.97;1.30;;;;;;;28.80;37.83;98268.06;5068442;28;20185;-57
2023/08/08 11:21:44;;;;;;;3.03;1.08;;;;;;;28.70;37.35;98258.97;5068448;28;20592;-58
2023/08/08 11:24:11;;;;;;;1.15;1.00;;;;;;;28.69;36.63;98228.88;5068414;28;20663;-58
2023/08/08 11:26:39;;;;;;;2.30;0.98;;;;;;;29.15;36.75;98255.75;5068287;28;20218;-57
2023/08/08 11:29:08;;;;;;;0.82;0.82;;;;;;;29.01;36.21;98258.81;5068503;28;20192;-57